Time;durP1;ratioP1;P1;durP2;ratioP2;P2;SDS_P1;SDS_P2;PMS_P1;PMS_P2;Temp;Humidity;BMP_temperature;BMP_pressure;BME280_temperature;BME280_humidity;BME280_pressure;Samples;Min_cycle;Max_cycle;Signal;HPM_P1;HPM_P2
2023/07/29 00:02:07;;;;;;;6.03;1.95;;;;;;;17.88;100.00;100515.00;5072317;28;20072;-54
2023/07/29 00:04:33;;;;;;;3.65;1.80;;;;;;;18.28;100.00;100577.06;5072632;28;20062;-49
2023/07/29 00:06:58;;;;;;;2.88;1.65;;;;;;;17.82;100.00;100503.91;5072553;28;20037;-55
2023/07/29 00:09:23;;;;;;;5.20;2.40;;;;;;;17.74;100.00;100504.41;5072437;28;20036;-50
2023/07/29 00:11:49;;;;;;;3.90;1.98;;;;;;;17.67;100.00;100499.59;5071066;28;20090;-52
2023/07/29 00:14:14;;;;;;;3.88;1.70;;;;;;;17.97;100.00;100564.13;5053790;28;20033;-59
2023/07/29 00:16:39;;;;;;;3.95;1.63;;;;;;;17.33;100.00;100472.56;5091332;28;20071;-51
2023/07/29 00:19:05;;;;;;;3.35;1.60;;;;;;;16.64;100.00;100357.47;5074699;28;20040;-56
2023/07/29 00:21:30;;;;;;;4.88;1.52;;;;;;;17.76;100.00;100558.41;5074211;28;20039;-47
2023/07/29 00:24:00;;;;;;;5.82;1.33;;;;;;;17.47;100.00;100518.66;5092596;28;20467;-47
2023/07/29 00:26:28;;;;;;;2.38;1.52;;;;;;;17.73;100.00;100555.09;5092468;28;20535;-47
2023/07/29 00:28:54;;;;;;;2.03;1.30;;;;;;;17.68;100.00;100568.72;5092690;28;20044;-56
2023/07/29 00:31:19;;;;;;;3.10;1.50;;;;;;;17.07;100.00;100497.34;5091752;28;20039;-51
2023/07/29 00:33:45;;;;;;;2.20;1.42;;;;;;;17.06;100.00;100490.28;5092497;28;20437;-49
2023/07/29 00:36:10;;;;;;;3.90;1.80;;;;;;;17.52;100.00;100569.75;5074376;28;20064;-48
2023/07/29 00:38:35;;;;;;;1.92;1.38;;;;;;;17.10;100.00;100497.13;5092103;28;20107;-49
2023/07/29 00:41:03;;;;;;;3.72;1.45;;;;;;;17.44;100.00;100564.97;5092192;28;20058;-53
2023/07/29 00:43:28;;;;;;;5.22;1.80;;;;;;;17.33;100.00;100562.13;5074543;28;20020;-48
2023/07/29 00:45:53;;;;;;;1.55;1.20;;;;;;;16.87;100.00;100471.13;5091621;28;20039;-52
2023/07/29 00:48:19;;;;;;;5.75;1.90;;;;;;;17.37;100.00;100559.16;5073879;28;20067;-48
2023/07/29 00:50:44;;;;;;;1.73;1.50;;;;;;;17.39;100.00;100556.44;5091919;28;20032;-49
2023/07/29 00:53:10;;;;;;;4.03;1.60;;;;;;;17.33;100.00;100548.84;5091855;28;20036;-49
2023/07/29 00:55:35;;;;;;;3.22;1.67;;;;;;;17.05;100.00;100493.03;5091909;28;20042;-48
2023/07/29 00:58:00;;;;;;;4.15;2.03;;;;;;;17.42;100.00;100564.22;5073643;28;20441;-51
2023/07/29 01:00:26;;;;;;;3.65;1.90;;;;;;;16.96;100.00;100475.03;5111101;28;20036;-48
2023/07/29 01:02:52;;;;;;;4.45;1.80;;;;;;;16.91;100.00;100466.47;5093930;28;20038;-52
2023/07/29 01:05:18;;;;;;;7.22;2.42;;;;;;;16.96;100.00;100483.03;5112328;28;20063;-50
2023/07/29 01:07:49;;;;;;;4.50;2.30;;;;;;;16.99;100.00;100477.50;5094077;28;20066;-48
2023/07/29 01:10:30;;;;;;;3.38;2.03;;;;;;;17.05;100.00;100490.38;5093745;28;20103;-47
2023/07/29 01:13:10;;;;;;;5.07;2.42;;;;;;;17.25;100.00;100528.03;5093997;28;20466;-56
2023/07/29 01:15:43;;;;;;;3.77;2.03;;;;;;;17.25;100.00;100519.22;5105570;28;20169;-50
2023/07/29 01:18:15;;;;;;;2.65;1.90;;;;;;;16.78;100.00;100443.34;5073814;28;20060;-48
2023/07/29 01:20:43;;;;;;;4.25;2.28;;;;;;;16.93;100.00;100469.94;5073410;28;20096;-54
2023/07/29 01:23:09;;;;;;;3.80;2.30;;;;;;;16.81;100.00;100451.13;5073988;28;20068;-54
2023/07/29 01:25:34;;;;;;;4.15;1.90;;;;;;;16.82;100.00;100467.94;5092197;28;20460;-52
2023/07/29 01:27:59;;;;;;;5.35;2.55;;;;;;;17.21;100.00;100525.69;5091977;28;20042;-57
2023/07/29 01:30:31;;;;;;;5.20;2.15;;;;;;;17.18;100.00;100537.38;5091677;28;20060;-54
2023/07/29 01:33:24;;;;;;;3.03;1.77;;;;;;;17.18;100.00;100521.41;5073087;28;20032;-51
2023/07/29 01:36:12;;;;;;;4.18;2.30;;;;;;;16.71;100.00;100455.34;5091756;28;20028;-52
2023/07/29 01:38:38;;;;;;;5.45;2.25;;;;;;;17.14;100.00;100524.34;5073673;28;20502;-53
2023/07/29 01:41:06;;;;;;;6.20;2.55;;;;;;;17.16;100.00;100535.78;5073446;28;20028;-56
2023/07/29 01:43:32;;;;;;;3.33;2.20;;;;;;;17.12;100.00;100520.97;5073459;28;20411;-49
2023/07/29 01:45:57;;;;;;;6.43;2.45;;;;;;;17.03;100.00;100522.41;5073725;28;20032;-49
2023/07/29 01:48:23;;;;;;;4.60;2.10;;;;;;;16.83;100.00;100481.13;5090883;28;20028;-46
2023/07/29 01:50:48;;;;;;;4.00;2.03;;;;;;;16.54;100.00;100436.09;5073623;28;20032;-48
2023/07/29 01:53:14;;;;;;;7.25;2.80;;;;;;;16.97;100.00;100506.84;5091581;28;20367;-50
2023/07/29 01:55:40;;;;;;;4.60;2.20;;;;;;;16.52;100.00;100436.16;5091627;28;20339;-48
2023/07/29 01:58:05;;;;;;;3.83;2.10;;;;;;;16.83;100.00;100485.59;5091356;28;20083;-47
2023/07/29 02:00:30;;;;;;;4.70;2.30;;;;;;;16.36;100.00;100411.50;5094363;28;20040;-53
2023/07/29 02:02:56;;;;;;;3.65;2.22;;;;;;;16.94;100.00;100503.50;5094992;28;20303;-48
2023/07/29 02:05:21;;;;;;;3.38;2.35;;;;;;;16.53;100.00;100437.88;5076651;28;20031;-50
2023/07/29 02:07:46;;;;;;;3.15;2.10;;;;;;;16.88;100.00;100510.94;5095328;28;20047;-57
2023/07/29 02:10:12;;;;;;;4.65;2.55;;;;;;;16.83;100.00;100505.06;5095033;28;20438;-52
2023/07/29 02:12:37;;;;;;;3.60;2.13;;;;;;;16.54;100.00;100452.91;5076492;28;20047;-53
2023/07/29 02:15:03;;;;;;;4.60;2.70;;;;;;;16.88;100.00;100502.09;5094730;28;20223;-49
2023/07/29 02:17:29;;;;;;;5.65;2.60;;;;;;;16.75;100.00;100474.59;5094832;28;20040;-49
2023/07/29 02:19:54;;;;;;;3.90;2.72;;;;;;;16.75;100.00;100475.44;5094857;28;20059;-55
2023/07/29 02:22:19;;;;;;;4.32;2.25;;;;;;;16.96;100.00;100506.94;5075885;28;20047;-55
2023/07/29 02:24:45;;;;;;;5.00;2.58;;;;;;;16.85;100.00;100487.19;5076406;28;20036;-49
2023/07/29 02:27:11;;;;;;;5.90;2.63;;;;;;;16.37;100.00;100399.09;5076532;28;20044;-48
2023/07/29 02:29:36;;;;;;;5.55;2.50;;;;;;;16.87;100.00;100490.59;5093492;28;20040;-52
2023/07/29 02:32:02;;;;;;;4.82;2.15;;;;;;;16.38;100.00;100412.25;5094182;28;20032;-50
2023/07/29 02:34:27;;;;;;;3.28;2.80;;;;;;;16.35;100.00;100393.84;5094671;28;20081;-50
2023/07/29 02:36:53;;;;;;;4.80;2.33;;;;;;;16.89;100.00;100490.53;5094671;28;20115;-56
2023/07/29 02:39:18;;;;;;;4.20;2.10;;;;;;;16.75;100.00;100486.06;5094288;28;20127;-54
2023/07/29 02:41:43;;;;;;;4.13;2.42;;;;;;;16.73;100.00;100477.34;5059546;28;20086;-48
2023/07/29 02:44:08;;;;;;;3.85;2.15;;;;;;;16.34;100.00;100395.66;5094383;28;20071;-55
2023/07/29 02:46:34;;;;;;;5.72;2.35;;;;;;;16.86;100.00;100474.78;5094337;28;20039;-50
2023/07/29 02:48:59;;;;;;;3.88;2.45;;;;;;;16.38;100.00;100379.53;5093723;28;20479;-52
2023/07/29 02:51:25;;;;;;;5.55;2.20;;;;;;;16.82;100.00;100450.19;5094144;28;20036;-50
2023/07/29 02:53:50;;;;;;;4.22;2.22;;;;;;;16.36;100.00;100378.78;5094053;28;20468;-51
2023/07/29 02:56:15;;;;;;;4.90;2.67;;;;;;;16.80;100.00;100453.91;5093732;28;20040;-55
2023/07/29 02:58:41;;;;;;;3.58;2.67;;;;;;;16.45;100.00;100396.78;5094440;28;20032;-49
2023/07/29 03:01:06;;;;;;;5.15;2.50;;;;;;;16.38;100.00;100384.84;5094011;28;20398;-55
2023/07/29 03:03:32;;;;;;;8.15;3.00;;;;;;;16.37;100.00;100391.13;5094029;28;20081;-51
2023/07/29 03:06:02;;;;;;;3.80;2.50;;;;;;;16.79;100.00;100463.66;5074803;28;20028;-50
2023/07/29 03:08:27;;;;;;;5.85;2.95;;;;;;;16.63;100.00;100446.16;5075775;28;20115;-49
2023/07/29 03:10:54;;;;;;;4.90;2.10;;;;;;;16.78;100.00;100469.94;5074550;28;20066;-54
2023/07/29 03:13:19;;;;;;;3.97;2.40;;;;;;;16.61;100.00;100450.69;5093746;28;20024;-50
2023/07/29 03:15:44;;;;;;;3.95;2.67;;;;;;;16.56;100.00;100452.78;5093485;28;20044;-49
2023/07/29 03:18:10;;;;;;;4.38;3.10;;;;;;;16.20;100.00;100393.00;5093702;28;20391;-59
2023/07/29 03:20:35;;;;;;;5.43;3.22;;;;;;;16.61;100.00;100459.50;5093561;28;20043;-53
2023/07/29 03:23:01;;;;;;;4.20;3.00;;;;;;;16.88;100.00;100481.69;5091464;28;20510;-56
2023/07/29 03:25:26;;;;;;;5.07;2.63;;;;;;;16.49;100.00;100403.63;5093297;28;20028;-58
2023/07/29 03:27:51;;;;;;;4.68;2.58;;;;;;;16.94;100.00;100483.09;5093198;28;20174;-52
2023/07/29 03:30:21;;;;;;;3.65;2.38;;;;;;;17.02;100.00;100487.91;5093499;28;20499;-54
2023/07/29 03:32:47;;;;;;;4.53;2.30;;;;;;;17.03;100.00;100460.38;5093575;28;20102;-58
2023/07/29 03:35:12;;;;;;;6.63;3.22;;;;;;;17.11;100.00;100482.00;5093452;28;20040;-48
2023/07/29 03:37:38;;;;;;;4.75;2.67;;;;;;;17.05;100.00;100455.81;5074423;28;20395;-49
2023/07/29 03:40:04;;;;;;;6.28;2.60;;;;;;;17.13;100.00;100465.00;5075054;28;20024;-48
2023/07/29 03:42:29;;;;;;;8.20;2.88;;;;;;;16.76;100.00;100401.88;5092648;28;20028;-54
2023/07/29 03:44:55;;;;;;;4.88;3.33;;;;;;;16.76;100.00;100417.81;5093362;28;20539;-53
2023/07/29 03:47:20;;;;;;;5.60;3.15;;;;;;;16.82;100.00;100412.09;5093291;28;20040;-54
2023/07/29 03:49:45;;;;;;;5.15;2.90;;;;;;;17.19;100.00;100482.38;5093127;28;20432;-56
2023/07/29 03:52:11;;;;;;;3.63;2.30;;;;;;;17.29;100.00;100488.78;5093234;28;20069;-50
2023/07/29 03:54:36;;;;;;;6.00;2.90;;;;;;;17.30;100.00;100479.88;5092216;28;20445;-52
2023/07/29 03:57:01;;;;;;;5.05;2.80;;;;;;;17.30;100.00;100474.56;5074548;28;20497;-47
2023/07/29 03:59:27;;;;;;;6.97;3.33;;;;;;;17.35;100.00;100483.06;5092716;28;20105;-48
2023/07/29 04:01:52;;;;;;;4.90;3.03;;;;;;;17.21;100.00;100457.38;5093039;28;20371;-47
2023/07/29 04:04:17;;;;;;;6.07;3.47;;;;;;;17.32;100.00;100476.16;5092972;28;20032;-57
2023/07/29 04:06:43;;;;;;;5.80;3.58;;;;;;;17.34;100.00;100484.88;5074555;28;20186;-52
2023/07/29 04:09:09;;;;;;;5.63;3.60;;;;;;;17.38;100.00;100488.19;5091238;28;20080;-52
2023/07/29 04:11:34;;;;;;;7.85;3.60;;;;;;;17.24;100.00;100445.69;5112529;28;20047;-49
2023/07/29 04:13:59;;;;;;;4.40;3.47;;;;;;;17.41;100.00;100477.34;5113500;28;20040;-48
2023/07/29 04:16:25;;;;;;;5.82;3.60;;;;;;;16.95;100.00;100390.91;5112497;28;20050;-48
2023/07/29 04:18:50;;;;;;;5.55;3.63;;;;;;;16.92;100.00;100399.09;5112783;28;20401;-47
2023/07/29 04:21:16;;;;;;;9.82;4.13;;;;;;;16.84;100.00;100392.44;5113002;28;20080;-57
2023/07/29 04:23:41;;;;;;;9.23;4.28;;;;;;;17.27;100.00;100478.28;5112491;28;20035;-56
2023/07/29 04:26:09;;;;;;;9.32;4.80;;;;;;;17.09;100.00;100452.00;5112477;28;20039;-50
2023/07/29 04:28:35;;;;;;;6.97;4.38;;;;;;;17.14;100.00;100474.69;5094228;28;20122;-51
2023/07/29 04:31:00;;;;;;;7.10;3.97;;;;;;;17.27;100.00;100488.91;5074398;28;20072;-48
2023/07/29 04:33:25;;;;;;;7.65;4.18;;;;;;;17.22;100.00;100477.69;5092381;28;20070;-48
2023/07/29 04:35:50;;;;;;;8.35;4.40;;;;;;;17.20;100.00;100476.94;5092542;28;20032;-48
2023/07/29 04:38:16;;;;;;;6.72;4.18;;;;;;;17.35;100.00;100489.25;5092173;28;20040;-52
2023/07/29 04:40:41;;;;;;;5.93;4.47;;;;;;;16.99;100.00;100419.84;5091965;28;20043;-50
2023/07/29 04:43:06;;;;;;;6.65;3.97;;;;;;;16.96;100.00;100409.41;5091578;28;20059;-49
2023/07/29 04:45:32;;;;;;;10.55;4.20;;;;;;;17.00;100.00;100410.91;5092534;28;20059;-49
2023/07/29 04:47:58;;;;;;;8.13;4.95;;;;;;;17.48;100.00;100496.44;5073856;28;20028;-54
2023/07/29 04:50:23;;;;;;;7.78;4.68;;;;;;;17.09;100.00;100423.63;5074037;28;20036;-54
2023/07/29 04:52:49;;;;;;;6.22;4.30;;;;;;;17.11;100.00;100432.34;5073918;28;20043;-56
2023/07/29 04:55:14;;;;;;;7.05;4.38;;;;;;;17.10;100.00;100428.00;5090576;28;20032;-52
2023/07/29 04:57:39;;;;;;;8.75;4.50;;;;;;;17.55;100.00;100500.41;5057442;28;20039;-49
2023/07/29 05:00:05;;;;;;;5.88;4.30;;;;;;;16.99;100.00;100403.88;5091389;28;20427;-48
2023/07/29 05:02:31;;;;;;;8.63;4.20;;;;;;;17.56;100.00;100492.34;5091776;28;20036;-54
2023/07/29 05:04:56;;;;;;;6.63;4.13;;;;;;;17.57;100.00;100493.19;5073279;28;20032;-51
2023/07/29 05:07:21;;;;;;;8.80;5.03;;;;;;;17.59;100.00;100496.59;5091868;28;20471;-55
2023/07/29 05:09:47;;;;;;;7.20;4.70;;;;;;;17.13;100.00;100417.13;5091692;28;20115;-50
2023/07/29 05:12:13;;;;;;;7.97;4.50;;;;;;;17.63;100.00;100487.47;5091833;28;20111;-53
2023/07/29 05:14:38;;;;;;;9.93;4.68;;;;;;;17.66;100.00;100490.75;5091953;28;20122;-52
2023/07/29 05:17:03;;;;;;;7.55;4.53;;;;;;;17.72;100.00;100500.13;5091614;28;20135;-54
2023/07/29 05:19:29;;;;;;;7.72;4.70;;;;;;;17.74;100.00;100488.44;5091896;28;20119;-49
2023/07/29 05:21:55;;;;;;;8.90;4.72;;;;;;;17.74;100.00;100479.59;5090957;28;20036;-50
2023/07/29 05:24:21;;;;;;;7.10;4.60;;;;;;;17.34;100.00;100409.53;5073526;28;20047;-48
2023/07/29 05:26:46;;;;;;;8.20;4.78;;;;;;;17.29;100.00;100401.00;5091800;28;20036;-48
2023/07/29 05:29:11;;;;;;;5.85;4.07;;;;;;;17.64;100.00;100463.41;5091844;28;20028;-48
2023/07/29 05:31:37;;;;;;;8.35;4.43;;;;;;;17.26;100.00;100390.56;5091939;28;20484;-50
2023/07/29 05:34:02;;;;;;;7.40;4.00;;;;;;;17.65;100.00;100445.63;5074413;28;20143;-48
2023/07/29 05:36:27;;;;;;;5.57;3.63;;;;;;;17.53;100.00;100422.47;5060825;28;20455;-50
2023/07/29 05:38:53;;;;;;;6.43;4.00;;;;;;;17.89;100.00;100460.75;5094555;28;20106;-57
2023/07/29 05:41:18;;;;;;;7.13;4.97;;;;;;;17.66;100.00;100402.09;5077189;28;20035;-48
2023/07/29 05:43:43;;;;;;;9.02;4.03;;;;;;;17.94;100.00;100463.97;5095496;28;20494;-49
2023/07/29 05:46:10;;;;;;;6.00;4.50;;;;;;;18.11;100.00;100465.47;5095065;28;20400;-44
2023/07/29 05:48:35;;;;;;;8.13;4.75;;;;;;;17.80;100.00;100415.31;5059517;28;20026;-49
2023/07/29 05:51:00;;;;;;;11.70;5.00;;;;;;;18.18;100.00;100488.06;5077446;28;20046;-49
2023/07/29 05:53:26;;;;;;;7.97;4.13;;;;;;;18.17;100.00;100486.38;5094906;28;20042;-49
2023/07/29 05:55:51;;;;;;;9.32;4.35;;;;;;;18.17;100.00;100478.38;5094543;28;20483;-46
2023/07/29 05:58:16;;;;;;;7.32;4.95;;;;;;;18.23;100.00;100496.59;5095216;28;20032;-48
2023/07/29 06:00:42;;;;;;;8.80;4.25;;;;;;;18.27;100.00;100492.75;5095167;28;20494;-48
2023/07/29 06:03:07;;;;;;;7.10;4.53;;;;;;;18.31;100.00;100485.41;5095219;28;20390;-56
2023/07/29 06:05:32;;;;;;;7.88;4.55;;;;;;;17.75;100.00;100417.41;5076822;28;20086;-46
2023/07/29 06:07:58;;;;;;;7.70;3.80;;;;;;;18.24;100.00;100494.78;5095786;28;20032;-46
2023/07/29 06:10:23;;;;;;;6.43;4.03;;;;;;;18.38;100.00;100492.88;5076651;28;20524;-46
2023/07/29 06:12:49;;;;;;;6.00;3.42;;;;;;;18.38;100.00;100479.53;5094176;28;20032;-50
2023/07/29 06:15:14;;;;;;;6.20;3.30;;;;;;;18.37;100.00;100493.81;5094946;28;20040;-47
2023/07/29 06:17:40;;;;;;;8.95;4.25;;;;;;;17.97;100.00;100413.19;5094983;28;20391;-45
2023/07/29 06:20:06;;;;;;;5.63;3.25;;;;;;;18.11;100.00;100416.66;5076806;28;20460;-49
2023/07/29 06:22:31;;;;;;;7.13;3.25;;;;;;;18.61;100.00;100506.41;5094621;28;20123;-46
2023/07/29 06:24:57;;;;;;;5.32;2.92;;;;;;;18.62;100.00;100495.66;5094624;28;20047;-48
2023/07/29 06:27:22;;;;;;;5.32;2.83;;;;;;;18.68;100.00;100499.69;5094232;28;20043;-45
2023/07/29 06:29:47;;;;;;;4.38;3.20;;;;;;;18.68;100.00;100499.69;5094550;28;20390;-47
2023/07/29 06:32:13;;;;;;;6.18;3.45;;;;;;;18.64;100.00;100501.72;5094628;28;20024;-50
2023/07/29 06:34:38;;;;;;;7.20;3.63;;;;;;;18.60;100.00;100489.56;5094455;28;20028;-47
2023/07/29 06:37:04;;;;;;;7.53;3.47;;;;;;;18.08;100.00;100409.75;5094708;28;20093;-49
2023/07/29 06:39:29;;;;;;;8.82;4.47;;;;;;;18.56;100.00;100490.75;5094510;28;20035;-46
2023/07/29 06:41:54;;;;;;;6.05;3.20;;;;;;;18.52;100.00;100494.59;5094510;28;20123;-47
2023/07/29 06:44:20;;;;;;;7.50;3.63;;;;;;;18.64;100.00;100506.19;5093974;28;20085;-44
2023/07/29 06:46:45;;;;;;;7.07;2.97;;;;;;;18.81;100.00;100480.03;5076144;28;20040;-48
2023/07/29 06:49:10;;;;;;;9.18;3.55;;;;;;;18.97;100.00;100498.47;5076607;28;20093;-46
2023/07/29 06:51:36;;;;;;;6.60;3.28;;;;;;;18.91;100.00;100477.56;5076077;28;20055;-45
2023/07/29 06:54:02;;;;;;;6.50;3.22;;;;;;;19.13;100.00;100501.72;5094257;28;20487;-46
2023/07/29 06:56:27;;;;;;;4.97;3.10;;;;;;;19.28;100.00;100478.38;5094327;28;20032;-46
2023/07/29 06:58:52;;;;;;;6.68;2.47;;;;;;;19.12;100.00;100433.28;5076445;28;20036;-48
2023/07/29 07:01:18;;;;;;;5.63;2.90;;;;;;;19.00;100.00;100419.03;5093500;28;20036;-48
2023/07/29 07:03:43;;;;;;;8.30;4.55;;;;;;;19.12;100.00;100417.28;5094090;28;20531;-47
2023/07/29 07:06:09;;;;;;;8.88;2.42;;;;;;;19.41;100.00;100474.72;5093976;28;20051;-46
2023/07/29 07:08:34;;;;;;;5.80;1.98;;;;;;;19.20;100.00;100435.41;5093913;28;20116;-47
2023/07/29 07:10:59;;;;;;;9.10;2.47;;;;;;;19.30;100.00;100420.41;5094111;28;20047;-47
2023/07/29 07:13:25;;;;;;;7.43;2.15;;;;;;;19.90;100.00;100495.91;5092673;28;20069;-45
2023/07/29 07:15:50;;;;;;;5.43;2.15;;;;;;;19.28;100.00;100372.50;5075489;28;20059;-48
2023/07/29 07:18:15;;;;;;;5.47;1.60;;;;;;;20.14;100.00;100488.66;5093069;28;20040;-49
2023/07/29 07:20:41;;;;;;;2.60;2.00;;;;;;;20.26;100.00;100502.09;5093778;28;20039;-49
2023/07/29 07:23:10;;;;;;;3.83;1.55;;;;;;;19.90;100.00;100433.63;5075602;28;20085;-50
2023/07/29 07:25:36;;;;;;;2.60;1.42;;;;;;;20.15;100.00;100462.81;5093877;28;20506;-47
2023/07/29 07:28:01;;;;;;;4.63;1.40;;;;;;;20.89;100.00;100526.44;5075513;28;20036;-46
2023/07/29 07:30:26;;;;;;;6.20;1.67;;;;;;;20.76;100.00;100453.47;5093492;28;20479;-52
2023/07/29 07:32:52;;;;;;;3.47;1.40;;;;;;;21.30;100.00;100541.88;5093026;28;20047;-48
2023/07/29 07:35:18;;;;;;;2.95;1.55;;;;;;;20.94;100.00;100477.91;5093628;28;20429;-50
2023/07/29 07:37:44;;;;;;;5.63;1.75;;;;;;;21.03;100.00;100539.56;5093459;28;20032;-44
2023/07/29 07:40:09;;;;;;;3.65;1.50;;;;;;;20.92;100.00;100557.44;5093493;28;20066;-45
2023/07/29 07:42:35;;;;;;;3.45;1.40;;;;;;;20.40;100.00;100484.00;5093226;28;20036;-46
2023/07/29 07:45:00;;;;;;;4.10;1.70;;;;;;;20.74;100.00;100570.44;5093465;28;20101;-51
2023/07/29 07:47:25;;;;;;;4.70;1.80;;;;;;;20.65;100.00;100574.69;5093342;28;20039;-46
2023/07/29 07:49:51;;;;;;;3.28;1.58;;;;;;;20.48;100.00;100544.91;5092048;28;20028;-46
2023/07/29 07:52:16;;;;;;;3.88;1.33;;;;;;;20.65;100.00;100564.00;5092878;28;20039;-45
2023/07/29 07:54:41;;;;;;;4.95;1.80;;;;;;;20.54;100.00;100545.28;5093204;28;20040;-45
2023/07/29 07:57:07;;;;;;;2.72;1.23;;;;;;;20.82;100.00;100557.31;5092493;28;20060;-50
2023/07/29 07:59:32;;;;;;;3.42;1.98;;;;;;;20.84;100.00;100563.38;5092884;28;20471;-49
2023/07/29 08:01:57;;;;;;;2.78;1.65;;;;;;;20.66;100.00;100492.66;5092938;28;20539;-52
2023/07/29 08:04:23;;;;;;;3.40;2.10;;;;;;;20.70;100.00;100486.91;5091572;28;20111;-48
2023/07/29 08:06:48;;;;;;;5.68;1.95;;;;;;;21.43;100.00;100560.44;5092094;28;20069;-47
2023/07/29 08:09:14;;;;;;;5.88;1.95;;;;;;;21.80;100.00;100559.13;5093030;28;20116;-46
2023/07/29 08:11:40;;;;;;;3.55;1.80;;;;;;;22.18;100.00;100502.31;5092926;28;20486;-48
2023/07/29 08:14:05;;;;;;;4.45;1.33;;;;;;;23.24;100.00;100581.50;5074830;28;20032;-50
2023/07/29 08:16:30;;;;;;;3.05;1.50;;;;;;;23.52;100.00;100567.34;5092698;28;20087;-52
2023/07/29 08:18:56;;;;;;;5.20;2.00;;;;;;;23.95;100.00;100592.00;5092739;28;20166;-48
2023/07/29 08:21:21;;;;;;;4.05;1.40;;;;;;;24.22;100.00;100607.47;5092408;28;20153;-48
2023/07/29 08:23:46;;;;;;;5.03;1.58;;;;;;;24.24;100.00;100572.34;5091741;28;20127;-54
2023/07/29 08:26:11;;;;;;;2.22;1.50;;;;;;;24.12;100.00;100616.50;5074041;28;20040;-49
2023/07/29 08:28:38;;;;;;;2.90;1.58;;;;;;;23.67;100.00;100598.19;5092342;28;20123;-48
2023/07/29 08:31:04;;;;;;;2.00;1.35;;;;;;;22.82;100.00;100540.53;5074181;28;20064;-51
2023/07/29 08:33:30;;;;;;;4.90;1.67;;;;;;;22.88;100.00;100559.59;5091677;28;20075;-49
2023/07/29 08:35:55;;;;;;;3.00;1.45;;;;;;;23.41;100.00;100588.94;5091930;28;20471;-47
2023/07/29 08:38:21;;;;;;;3.47;1.30;;;;;;;23.71;100.00;100588.00;5092202;28;20036;-49
2023/07/29 08:40:54;;;;;;;4.95;1.42;;;;;;;23.61;100.00;100577.25;5092099;28;20039;-50
2023/07/29 08:43:20;;;;;;;3.50;1.50;;;;;;;23.66;100.00;100598.31;5073773;28;20479;-52
2023/07/29 08:45:46;;;;;;;3.35;1.60;;;;;;;23.53;100.00;100598.56;5074286;28;20043;-46
2023/07/29 08:48:12;;;;;;;3.60;1.45;;;;;;;23.20;100.00;100594.38;5091987;28;20487;-50
2023/07/29 08:50:38;;;;;;;7.03;1.52;;;;;;;23.14;100.00;100594.91;5073388;28;20046;-46
2023/07/29 08:53:05;;;;;;;1.63;1.30;;;;;;;22.91;100.00;100593.41;5092038;28;20492;-45
2023/07/29 08:55:31;;;;;;;2.65;1.40;;;;;;;22.49;100.00;100535.38;5074309;28;20024;-53
2023/07/29 08:57:57;;;;;;;2.42;1.45;;;;;;;22.15;100.00;100542.78;5074150;28;20043;-51
2023/07/29 09:00:22;;;;;;;1.92;1.25;;;;;;;22.58;100.00;100605.19;5073824;28;20032;-45
2023/07/29 09:02:48;;;;;;;4.85;1.65;;;;;;;22.60;100.00;100613.09;5091489;28;20038;-53
2023/07/29 09:05:13;;;;;;;3.75;1.50;;;;;;;22.37;100.00;100596.28;5091604;28;20226;-49
2023/07/29 09:07:39;;;;;;;3.75;1.40;;;;;;;21.82;100.00;100539.25;5089518;28;20479;-47
2023/07/29 09:10:05;;;;;;;4.63;1.90;;;;;;;21.89;100.00;100609.28;5076032;28;20471;-48
2023/07/29 09:12:30;;;;;;;3.70;2.00;;;;;;;21.49;100.00;100608.16;5095134;28;20550;-47
2023/07/29 09:14:55;;;;;;;7.22;2.03;;;;;;;20.55;100.00;100533.59;5077360;28;20045;-47
2023/07/29 09:17:22;;;;;;;5.18;2.60;;;;;;;20.20;100.00;100560.34;5095849;28;20042;-49
2023/07/29 09:19:51;;;;;;;5.03;2.70;;;;;;;19.71;100.00;100550.81;5095857;28;20063;-51
2023/07/29 09:22:20;;;;;;;7.38;3.17;;;;;;;19.58;100.00;100550.91;5077613;28;20085;-53
2023/07/29 09:24:46;;;;;;;6.88;3.00;;;;;;;19.16;100.00;100472.13;5096087;28;20063;-46
2023/07/29 09:27:27;;;;;;;9.40;3.50;;;;;;;19.55;100.00;100487.91;5077925;28;20044;-47
2023/07/29 09:29:54;;;;;;;6.60;3.50;;;;;;;20.10;100.00;100531.78;5095089;28;20041;-51
2023/07/29 09:32:21;;;;;;;6.00;3.22;;;;;;;20.61;100.00;100559.84;5077667;28;20036;-46
2023/07/29 09:34:46;;;;;;;10.68;4.00;;;;;;;20.70;100.00;100545.75;5095976;28;20028;-47
2023/07/29 09:37:21;;;;;;;5.70;3.20;;;;;;;20.38;100.00;100493.97;5077467;28;20054;-46
2023/07/29 09:39:48;;;;;;;8.38;3.13;;;;;;;20.34;100.00;100483.66;5095883;28;20077;-46
2023/07/29 09:42:21;;;;;;;3.28;2.80;;;;;;;20.42;100.00;100481.22;5077474;28;20032;-50
2023/07/29 09:44:48;;;;;;;6.35;2.60;;;;;;;20.86;100.00;100560.59;5076204;28;20032;-48
2023/07/29 09:47:24;;;;;;;3.53;2.63;;;;;;;20.96;100.00;100550.84;5095538;28;20024;-47
2023/07/29 09:49:50;;;;;;;5.45;2.90;;;;;;;20.59;100.00;100489.59;5095366;28;20054;-47
2023/07/29 09:52:19;;;;;;;4.03;2.92;;;;;;;21.15;100.00;100561.84;5095277;28;20107;-50
2023/07/29 09:54:46;;;;;;;5.90;2.88;;;;;;;21.06;100.00;100538.47;5095061;28;20059;-47
2023/07/29 09:57:13;;;;;;;4.43;2.45;;;;;;;20.74;100.00;100476.84;5094987;28;20044;-49
2023/07/29 09:59:39;;;;;;;3.70;2.80;;;;;;;21.18;100.00;100561.59;5095302;28;20035;-51
2023/07/29 10:02:04;;;;;;;4.43;2.00;;;;;;;21.14;100.00;100552.09;5076222;28;20040;-47
2023/07/29 10:04:30;;;;;;;3.65;2.42;;;;;;;20.74;100.00;100493.75;5076744;28;20043;-49
2023/07/29 10:06:56;;;;;;;5.45;2.80;;;;;;;20.77;100.00;100503.34;5076992;28;20040;-51
2023/07/29 10:09:22;;;;;;;3.95;1.70;;;;;;;21.09;100.00;100557.84;5077051;28;20039;-47
2023/07/29 10:11:50;;;;;;;2.40;1.67;;;;;;;20.97;100.00;100569.47;5095627;28;20364;-48
2023/07/29 10:14:16;;;;;;;5.38;1.70;;;;;;;20.47;100.00;100522.66;5077346;28;20039;-50
2023/07/29 10:16:44;;;;;;;5.05;1.95;;;;;;;20.76;100.00;100589.91;5075910;28;20059;-46
2023/07/29 10:19:10;;;;;;;2.28;1.90;;;;;;;20.15;100.00;100495.72;5076380;28;20484;-50
2023/07/29 10:21:38;;;;;;;5.80;1.98;;;;;;;20.55;100.00;100563.00;5093855;28;20047;-45
2023/07/29 10:24:06;;;;;;;2.83;1.85;;;;;;;20.64;100.00;100590.84;5093733;28;20055;-51
2023/07/29 10:26:33;;;;;;;4.10;1.65;;;;;;;20.65;100.00;100604.13;5075994;28;20150;-46
2023/07/29 10:29:04;;;;;;;2.55;1.73;;;;;;;20.71;100.00;100587.59;5077023;28;20498;-47
2023/07/29 10:31:30;;;;;;;2.22;1.50;;;;;;;20.23;100.00;100508.47;5094471;28;20530;-50
2023/07/29 10:33:55;;;;;;;2.88;1.35;;;;;;;20.44;100.00;100530.06;5076486;28;20134;-48
2023/07/29 10:36:21;;;;;;;3.90;1.20;;;;;;;20.82;100.00;100583.22;5075961;28;20092;-47
2023/07/29 10:38:46;;;;;;;5.00;1.15;;;;;;;20.91;100.00;100588.69;5076564;28;20039;-47
2023/07/29 10:41:12;;;;;;;2.28;1.45;;;;;;;20.46;100.00;100523.63;5094030;28;20463;-52
2023/07/29 10:43:40;;;;;;;1.85;0.90;;;;;;;20.37;100.00;100520.84;5094314;28;20047;-50
2023/07/29 10:46:22;;;;;;;1.95;0.88;;;;;;;20.40;100.00;100540.13;5093980;28;20153;-48
2023/07/29 10:48:50;;;;;;;3.08;0.70;;;;;;;20.64;100.00;100588.19;5074723;28;20020;-52
2023/07/29 10:51:34;;;;;;;2.60;0.98;;;;;;;20.65;100.00;100589.91;5093917;28;20039;-48
2023/07/29 10:54:03;;;;;;;3.30;0.75;;;;;;;20.74;100.00;100582.00;5094395;28;20043;-49
2023/07/29 10:56:30;;;;;;;2.75;1.15;;;;;;;20.48;100.00;100497.63;5074949;28;20043;-46
2023/07/29 10:58:59;;;;;;;3.80;1.00;;;;;;;21.45;100.00;100570.06;5075487;28;20031;-48
2023/07/29 11:01:28;;;;;;;1.58;1.00;;;;;;;21.98;100.00;100556.78;5093798;28;20042;-48
2023/07/29 11:04:19;;;;;;;1.38;1.00;;;;;;;22.79;100.00;100589.97;5093264;28;20036;-46
2023/07/29 11:07:03;;;;;;;2.00;1.00;;;;;;;23.32;100.00;100581.69;5093577;28;20032;-50
2023/07/29 11:09:59;;;;;;;1.35;1.00;;;;;;;24.26;100.00;100579.28;5093350;28;20055;-49
2023/07/29 11:12:38;;;;;;;0.90;0.90;;;;;;;24.34;100.00;100544.41;5054340;28;20040;-50
2023/07/29 11:15:10;;;;;;;3.60;1.88;;;;;;;24.50;100.00;100592.25;5093287;28;20040;-49